createdAt,value
2019-05-07T00:00:43.818Z,999.42
2019-05-07T00:02:04.659Z,999.43
2019-05-07T00:03:25.921Z,999.54
2019-05-07T00:04:47.187Z,999.65
2019-05-07T00:06:08.463Z,999.62
2019-05-07T00:07:31.559Z,999.72
2019-05-07T00:08:52.252Z,999.73
2019-05-07T00:10:12.826Z,999.82
2019-05-07T00:11:33.505Z,999.89
2019-05-07T00:12:54.775Z,999.96
2019-05-07T00:14:16.046Z,1000.00
2019-05-07T00:15:37.314Z,999.98
2019-05-07T00:16:58.575Z,1000.01
2019-05-07T00:18:19.835Z,1000.02
2019-05-07T00:19:43.162Z,1000.02
2019-05-07T00:21:03.544Z,1000.07
2019-05-07T00:22:23.705Z,1000.08
2019-05-07T00:23:44.973Z,1000.13
2019-05-07T00:25:06.243Z,1000.12
2019-05-07T00:26:27.510Z,1000.16
2019-05-07T00:27:48.783Z,1000.19
2019-05-07T00:29:10.054Z,1000.17
2019-05-07T00:30:33.165Z,1000.16
2019-05-07T00:31:52.588Z,1000.17
2019-05-07T00:33:14.345Z,1000.17
2019-05-07T00:34:35.614Z,1000.16
2019-05-07T00:35:56.873Z,1000.15
2019-05-07T00:37:18.139Z,1000.13
2019-05-07T00:38:39.398Z,1000.14
2019-05-07T00:40:02.716Z,1000.12
2019-05-07T00:41:22.931Z,1000.17
2019-05-07T00:42:43.193Z,1000.16
2019-05-07T00:44:04.463Z,1000.14
2019-05-07T00:45:25.720Z,1000.17
2019-05-07T00:46:46.978Z,1000.16
2019-05-07T00:48:08.235Z,1000.14
2019-05-07T00:49:29.493Z,1000.11
2019-05-07T00:50:52.704Z,1000.15
2019-05-07T00:52:14.027Z,1000.14
2019-05-07T00:53:33.284Z,1000.18
2019-05-07T00:54:54.546Z,1000.14
2019-05-07T00:56:15.804Z,1000.12
2019-05-07T00:57:37.060Z,1000.09
2019-05-07T00:58:58.320Z,1000.03
2019-05-07T01:00:19.574Z,1000.01
2019-05-07T01:01:43.064Z,999.95
2019-05-07T01:03:03.054Z,999.94
2019-05-07T01:04:24.343Z,999.88
2019-05-07T01:05:45.604Z,999.80
2019-05-07T01:07:06.871Z,999.73
2019-05-07T01:08:28.126Z,999.74
2019-05-07T01:09:49.381Z,999.72
2019-05-07T01:11:13.008Z,999.76
2019-05-07T01:12:32.840Z,999.78
2019-05-07T01:13:53.157Z,999.78
2019-05-07T01:15:27.854Z,999.85
2019-05-07T01:16:35.668Z,999.85
2019-05-07T01:17:56.930Z,999.85
2019-05-07T01:19:18.184Z,999.87
2019-05-07T01:20:39.436Z,999.90
2019-05-07T01:22:03.021Z,999.98
2019-05-07T01:23:22.863Z,1000.02
2019-05-07T01:24:43.203Z,1000.07
2019-05-07T01:26:05.460Z,1000.07
2019-05-07T01:27:26.708Z,1000.06
2019-05-07T01:28:47.969Z,1000.15
2019-05-07T01:30:09.226Z,1000.11
2019-05-07T01:31:32.737Z,1000.10
2019-05-07T01:32:53.219Z,1000.09
2019-05-07T01:34:12.993Z,1000.13
2019-05-07T01:35:34.244Z,1000.09
2019-05-07T01:36:55.503Z,1000.10
2019-05-07T01:38:16.760Z,1000.08
2019-05-07T01:39:38.016Z,1000.13
2019-05-07T01:40:59.271Z,1000.09
2019-05-07T01:42:22.167Z,1000.04
2019-05-07T01:43:42.963Z,1000.04
2019-05-07T01:45:03.042Z,1000.00
2019-05-07T01:46:24.712Z,999.97
2019-05-07T01:47:45.547Z,999.90
2019-05-07T01:49:06.803Z,999.90
2019-05-07T01:50:28.063Z,999.86
2019-05-07T01:51:49.311Z,999.82
2019-05-07T01:53:12.219Z,999.83
2019-05-07T01:54:33.274Z,999.85
2019-05-07T01:55:53.086Z,999.86
2019-05-07T01:57:14.341Z,999.89
2019-05-07T01:58:35.605Z,999.94
2019-05-07T01:59:56.861Z,999.99
2019-05-07T02:01:18.124Z,1000.01
2019-05-07T08:10:26.031Z,995.43
2019-05-07T08:11:47.542Z,995.50
2019-05-07T08:13:09.053Z,995.25
2019-05-07T08:14:32.480Z,995.14
2019-05-07T08:15:53.068Z,994.94
2019-05-07T08:17:14.584Z,995.11
2019-05-07T08:18:36.140Z,995.27
2019-05-07T08:19:58.089Z,995.43
2019-05-07T08:21:22.476Z,995.69
2019-05-07T08:22:42.277Z,995.91
2019-05-07T08:24:03.042Z,996.06
2019-05-07T08:25:25.023Z,996.34
2019-05-07T08:26:46.498Z,996.50
2019-05-07T08:28:07.958Z,996.63
2019-05-07T08:29:29.422Z,996.85
2019-05-07T08:30:52.561Z,996.85
2019-05-07T08:32:12.852Z,996.86
2019-05-07T08:33:34.789Z,996.88
2019-05-07T08:34:56.742Z,996.97
2019-05-07T08:36:18.980Z,997.24
2019-05-07T08:37:42.600Z,997.47
2019-05-07T08:39:02.644Z,997.72
2019-05-07T08:40:23.771Z,998.01
2019-05-07T08:41:45.691Z,998.15
2019-05-07T08:43:07.113Z,998.46
2019-05-07T08:44:29.013Z,998.72
2019-05-07T08:45:52.410Z,999.01
2019-05-07T08:47:12.375Z,999.18
2019-05-07T08:48:33.766Z,998.99
2019-05-07T08:49:55.165Z,999.00
2019-05-07T08:51:16.571Z,998.83
2019-05-07T08:52:37.976Z,998.56
2019-05-07T08:53:59.405Z,998.33
2019-05-07T08:55:21.760Z,998.31
2019-05-07T08:56:42.709Z,997.90
2019-05-07T08:58:04.120Z,997.33
2019-05-07T08:59:25.530Z,996.88
2019-05-07T09:00:46.978Z,996.38
2019-05-07T09:02:08.903Z,996.22
2019-05-07T09:03:32.391Z,996.21
2019-05-07T09:04:52.724Z,996.21
2019-05-07T09:06:14.140Z,996.34
2019-05-07T09:07:36.078Z,996.41
2019-05-07T09:08:57.492Z,996.55
2019-05-07T09:10:18.912Z,996.84
2019-05-07T09:11:42.463Z,997.17
2019-05-07T09:13:02.727Z,997.10
2019-05-07T09:14:26.199Z,997.00
2019-05-07T09:15:45.533Z,997.14
2019-05-07T09:17:07.427Z,997.14
2019-05-07T09:18:29.334Z,997.25
2019-05-07T09:19:54.486Z,997.35
2019-05-07T09:21:13.082Z,997.52
2019-05-07T09:22:34.470Z,997.70
2019-05-07T09:23:56.413Z,997.89
2019-05-07T09:25:17.786Z,998.06
2019-05-07T09:26:39.168Z,998.16
2019-05-07T09:28:02.653Z,998.23
2019-05-07T09:29:22.899Z,998.32
2019-05-07T09:30:44.765Z,998.38
2019-05-07T09:32:06.626Z,998.46
2019-05-07T09:33:28.004Z,998.69
2019-05-07T09:34:51.928Z,998.89
2019-05-07T09:36:12.179Z,999.13
2019-05-07T09:37:33.605Z,999.28
2019-05-07T09:38:59.052Z,999.34
2019-05-07T09:40:16.816Z,999.49
2019-05-07T09:41:38.181Z,999.70
2019-05-07T09:42:59.534Z,999.90
2019-05-07T09:44:22.185Z,1000.00
2019-05-07T09:45:42.747Z,1000.02
2019-05-07T09:47:04.590Z,1000.06
2019-05-07T09:48:25.942Z,1000.10
2019-05-07T09:50:00.442Z,1000.14
2019-05-07T09:51:09.135Z,1000.12
2019-05-07T09:52:32.097Z,1000.10
2019-05-07T09:53:52.041Z,1000.05
2019-05-07T09:55:16.802Z,1000.03
2019-05-07T09:56:35.520Z,1000.03
2019-05-07T09:57:56.870Z,999.89
2019-05-07T09:59:18.225Z,999.85
2019-05-07T10:00:39.572Z,999.86
2019-05-07T10:02:01.908Z,999.89
2019-05-07T10:03:23.253Z,999.86
2019-05-07T10:04:45.091Z,999.80
2019-05-07T10:06:06.933Z,999.77
2019-05-07T10:07:28.270Z,999.68
2019-05-07T10:08:52.289Z,999.63
2019-05-07T10:10:12.958Z,999.64
2019-05-07T10:11:34.801Z,999.57
2019-05-07T10:12:56.643Z,999.53
2019-05-07T10:14:18.477Z,999.53
2019-05-07T10:15:41.781Z,999.48
2019-05-07T10:17:02.711Z,999.48
2019-05-07T10:18:23.230Z,999.43
2019-05-07T10:19:45.061Z,999.42
2019-05-07T10:21:06.401Z,999.36
2019-05-07T10:22:28.058Z,999.35
2019-05-07T10:23:49.402Z,999.29
2019-05-07T10:25:12.142Z,999.30
2019-05-07T10:26:32.301Z,999.29
2019-05-07T10:27:53.929Z,999.29
2019-05-07T10:29:15.773Z,999.25
2019-05-07T10:30:37.615Z,999.22
2019-05-07T10:31:58.961Z,999.15
2019-05-07T10:33:22.717Z,999.13
2019-05-07T10:34:42.658Z,999.12
2019-05-07T10:36:04.508Z,999.12
2019-05-07T10:37:26.369Z,999.02
2019-05-07T10:38:48.224Z,998.95
2019-05-07T10:40:12.080Z,998.89
2019-05-07T10:41:31.987Z,998.83
2019-05-07T10:42:53.326Z,998.75
2019-05-07T10:44:15.210Z,998.69
2019-05-07T10:45:36.586Z,998.58
2019-05-07T10:46:58.474Z,998.53
2019-05-07T10:48:21.929Z,998.37
2019-05-07T10:49:42.198Z,998.34
2019-05-07T10:51:03.157Z,998.24
2019-05-07T10:52:25.080Z,998.13
2019-05-07T10:53:47.510Z,998.06
2019-05-07T10:55:11.882Z,997.79
2019-05-07T10:56:32.634Z,997.43
2019-05-07T10:57:52.956Z,997.08
2019-05-07T10:59:14.296Z,996.86
2019-05-07T11:00:36.843Z,996.49
2019-05-07T11:01:58.787Z,995.94
2019-05-07T11:03:21.921Z,995.75
2019-05-07T11:04:45.692Z,995.20
2019-05-07T11:06:03.671Z,994.76
2019-05-07T11:07:25.644Z,995.02
2019-05-07T11:08:47.126Z,994.74
2019-05-07T11:10:08.599Z,994.82
2019-05-07T11:11:31.754Z,993.89
2019-05-07T11:12:52.065Z,993.94
2019-05-07T11:14:14.061Z,993.89
2019-05-07T11:15:36.036Z,993.90
2019-05-07T11:16:57.528Z,993.95
2019-05-07T11:18:19.014Z,993.69
2019-05-07T11:19:41.686Z,993.04
2019-05-07T11:21:03.095Z,992.81
2019-05-07T11:22:24.492Z,992.70
2019-05-07T11:23:46.488Z,993.12
2019-05-07T11:25:08.483Z,993.12
2019-05-07T11:26:32.697Z,992.99
2019-05-07T11:27:52.541Z,993.07
2019-05-07T11:29:14.469Z,993.18
2019-05-07T11:30:36.457Z,993.04
2019-05-07T11:31:57.946Z,992.95
2019-05-07T11:33:19.457Z,993.12
2019-05-07T11:34:42.222Z,993.61
2019-05-07T11:36:03.432Z,993.87
2019-05-07T11:37:25.436Z,993.56
2019-05-07T11:38:47.441Z,993.69
2019-05-07T11:40:08.918Z,993.95
2019-05-07T11:41:32.106Z,993.97
2019-05-07T11:42:52.256Z,994.06
2019-05-07T11:44:14.121Z,994.29
2019-05-07T11:45:36.080Z,994.59
2019-05-07T11:46:58.029Z,994.40
2019-05-07T11:48:19.492Z,994.35
2019-05-07T11:49:41.727Z,994.46
2019-05-07T11:51:04.424Z,994.28
2019-05-07T11:52:25.468Z,994.27
2019-05-07T11:53:47.416Z,994.27
2019-05-07T11:55:09.414Z,993.84
2019-05-07T11:56:32.830Z,993.99
2019-05-07T11:57:52.330Z,993.96
2019-05-07T11:59:14.299Z,993.75
2019-05-07T12:00:36.251Z,993.70
2019-05-07T12:01:58.216Z,993.54
2019-05-07T12:03:21.982Z,993.53
2019-05-07T12:04:42.275Z,993.62
2019-05-07T12:06:03.124Z,993.40
2019-05-07T12:07:25.086Z,993.51
2019-05-07T12:08:51.839Z,993.33
2019-05-07T12:10:08.507Z,993.17
2019-05-07T12:11:32.218Z,992.87
2019-05-07T12:12:52.165Z,992.84
2019-05-07T12:14:13.397Z,992.72
2019-05-07T12:15:35.360Z,993.11
2019-05-07T12:16:57.132Z,993.63
2019-05-07T12:18:19.073Z,993.65
2019-05-07T12:19:43.700Z,993.81
2019-05-07T12:21:16.553Z,993.83
2019-05-07T12:22:24.418Z,993.72
2019-05-07T12:23:45.875Z,993.36
2019-05-07T12:25:07.817Z,993.24
2019-05-07T12:26:29.758Z,993.29
2019-05-07T12:27:51.703Z,993.22
2019-05-07T12:29:13.660Z,993.00
2019-05-07T12:30:35.613Z,992.86
2019-05-07T12:31:57.079Z,992.93
2019-05-07T12:33:19.038Z,993.11
2019-05-07T12:34:42.224Z,993.13
2019-05-07T12:36:02.467Z,992.91
2019-05-07T12:37:24.411Z,992.50
2019-05-07T12:38:46.400Z,992.42
2019-05-07T12:40:08.830Z,992.29
2019-05-07T12:41:33.173Z,992.26
2019-05-07T12:42:52.767Z,992.39
2019-05-07T12:44:14.731Z,992.38
2019-05-07T12:45:36.715Z,992.12
2019-05-07T12:46:58.201Z,992.01
2019-05-07T12:48:21.460Z,992.20
2019-05-07T12:49:42.919Z,992.22
2019-05-07T12:51:03.676Z,991.78
2019-05-07T12:52:25.163Z,991.96
2019-05-07T12:53:47.153Z,991.75
2019-05-07T12:55:11.886Z,991.58
2019-05-07T12:56:32.163Z,991.81
2019-05-07T12:57:54.112Z,992.00
2019-05-07T12:59:15.606Z,992.13
2019-05-07T13:00:37.606Z,992.36
2019-05-07T13:01:59.588Z,992.35
2019-05-07T13:03:21.899Z,992.46
2019-05-07T13:04:43.573Z,992.51
2019-05-07T13:06:05.569Z,992.09
2019-05-07T13:07:27.574Z,991.88
2019-05-07T13:08:49.588Z,991.67
2019-05-07T13:10:11.612Z,991.60
2019-05-07T13:11:33.628Z,991.81
2019-05-07T13:12:55.655Z,991.66
2019-05-07T13:14:17.689Z,991.50
2019-05-07T13:15:39.724Z,991.09
2019-05-07T13:17:02.779Z,990.60
2019-05-07T13:18:23.289Z,990.63
2019-05-07T13:19:45.338Z,990.96
2019-05-07T13:21:06.888Z,991.08
2019-05-07T13:22:28.926Z,990.96
2019-05-07T13:23:52.059Z,990.68
2019-05-07T13:25:13.008Z,990.40
2019-05-07T13:26:35.067Z,990.66
2019-05-07T13:27:56.613Z,990.95
2019-05-07T13:29:18.643Z,991.20
2019-05-07T13:30:43.585Z,991.54
2019-05-07T13:32:03.005Z,991.49
2019-05-07T13:33:24.770Z,991.54
2019-05-07T13:34:47.110Z,991.57
2019-05-07T13:36:09.164Z,991.58
2019-05-07T13:37:32.515Z,991.69
2019-05-07T13:38:53.237Z,991.68
2019-05-07T13:40:15.296Z,991.62
2019-05-07T13:41:37.338Z,991.84
2019-05-07T13:42:59.441Z,991.17
2019-05-07T13:44:22.879Z,991.17
2019-05-07T13:45:44.504Z,991.18
2019-05-07T13:47:05.576Z,990.86
2019-05-07T13:48:27.633Z,990.88
2019-05-07T13:49:53.515Z,991.33
2019-05-07T13:51:12.264Z,991.24
2019-05-07T13:52:33.836Z,990.36
2019-05-07T13:53:55.431Z,990.21
2019-05-07T13:55:16.994Z,989.83
2019-05-07T13:56:41.901Z,989.50
2019-05-07T13:58:01.844Z,989.72
2019-05-07T13:59:23.911Z,989.87
2019-05-07T14:00:45.995Z,989.43
2019-05-07T14:02:07.577Z,989.95
2019-05-07T14:03:29.650Z,989.99
2019-05-07T14:04:52.664Z,989.44
2019-05-07T14:06:16.360Z,989.24
2019-05-07T14:07:35.850Z,988.91
2019-05-07T14:08:57.919Z,989.02
2019-05-07T14:10:19.496Z,989.22
2019-05-07T14:11:42.327Z,989.89
2019-05-07T14:13:12.618Z,990.24
2019-05-07T14:14:25.679Z,990.33
2019-05-07T14:15:47.727Z,990.12
2019-05-07T14:17:09.310Z,990.24
2019-05-07T14:18:32.674Z,989.78
2019-05-07T14:19:53.957Z,990.24
2019-05-07T14:21:16.025Z,989.93
2019-05-07T14:22:38.340Z,989.35
2019-05-07T14:24:00.660Z,988.77
2019-05-07T14:25:24.149Z,988.22
2019-05-07T14:26:45.930Z,988.54
2019-05-07T14:28:08.000Z,988.41
2019-05-07T14:29:32.064Z,989.19
2019-05-07T14:30:53.782Z,989.31
2019-05-07T14:32:17.805Z,989.16
2019-05-07T14:33:39.890Z,988.94
2019-05-07T14:35:02.139Z,988.67
2019-05-07T14:36:23.858Z,988.70
2019-05-07T14:37:45.915Z,989.03
2019-05-07T14:39:07.970Z,989.20
2019-05-07T14:40:32.208Z,989.36
2019-05-07T14:41:52.790Z,989.56
2019-05-07T14:43:15.499Z,989.76
2019-05-07T14:44:38.507Z,989.85
2019-05-07T14:46:02.592Z,990.12
2019-05-07T14:47:22.636Z,990.00
2019-05-07T14:48:44.697Z,990.03
2019-05-07T14:50:06.270Z,989.79
2019-05-07T14:51:28.324Z,989.78
2019-05-07T14:52:52.309Z,989.90
2019-05-07T14:54:12.397Z,989.86
2019-05-07T14:55:34.012Z,989.75
2019-05-07T14:56:56.077Z,990.21
2019-05-07T14:58:18.146Z,990.33
2019-05-07T14:59:40.184Z,990.24
2019-05-07T15:01:02.457Z,989.97
2019-05-07T15:02:23.813Z,990.45
2019-05-07T15:03:46.187Z,991.22
2019-05-07T15:05:07.755Z,991.68
2019-05-07T15:06:32.852Z,992.19
2019-05-07T15:08:08.297Z,992.78
2019-05-07T15:09:22.403Z,992.74
2019-05-07T15:10:45.166Z,992.51
2019-05-07T15:12:07.195Z,992.27
2019-05-07T15:13:29.264Z,992.22
2019-05-07T15:14:52.817Z,992.19
2019-05-07T15:16:13.346Z,992.06
2019-05-07T15:17:35.414Z,992.27
2019-05-07T15:18:57.412Z,992.60
2019-05-07T15:20:22.705Z,992.55
2019-05-07T15:21:44.647Z,992.68
2019-05-07T15:23:06.647Z,992.12
2019-05-07T15:24:28.656Z,991.64
2019-05-07T15:25:51.701Z,991.28
2019-05-07T15:27:12.671Z,991.03
2019-05-07T15:28:34.676Z,991.18
2019-05-07T15:29:56.680Z,991.05
2019-05-07T15:31:18.796Z,990.68
2019-05-07T15:32:42.734Z,990.69
2019-05-07T15:34:03.054Z,990.75
2019-05-07T15:35:24.857Z,990.91
2019-05-07T15:36:47.924Z,990.70
2019-05-07T15:38:11.654Z,990.91
2019-05-07T15:39:32.769Z,990.70
2019-05-07T15:40:53.978Z,991.09
2019-05-07T15:42:15.491Z,991.60
2019-05-07T15:43:37.511Z,991.85
2019-05-07T15:44:59.520Z,992.09
2019-05-07T15:46:22.692Z,992.14
2019-05-07T15:47:43.515Z,992.40
2019-05-07T15:49:05.027Z,992.42
2019-05-07T15:50:27.030Z,992.33
2019-05-07T15:51:49.021Z,992.45
2019-05-07T15:53:12.385Z,992.43
2019-05-07T15:54:33.122Z,992.47
2019-05-07T15:55:55.087Z,992.54
2019-05-07T15:57:17.072Z,992.68
2019-05-07T15:58:39.054Z,992.89
2019-05-07T16:00:02.136Z,993.17
2019-05-07T16:01:23.037Z,992.77
2019-05-07T16:02:45.330Z,992.68
2019-05-07T16:04:19.218Z,992.81
2019-05-07T16:05:28.488Z,992.72
2019-05-07T16:06:52.627Z,992.57
2019-05-07T16:08:12.492Z,992.46
2019-05-07T16:09:34.419Z,992.50
2019-05-07T16:10:56.402Z,992.63
2019-05-07T16:12:18.381Z,992.67
2019-05-07T16:13:42.023Z,992.57
2019-05-07T16:15:03.206Z,992.52
2019-05-07T16:16:23.827Z,992.44
2019-05-07T16:17:45.808Z,992.46
2019-05-07T16:19:07.792Z,992.41
2019-05-07T16:20:29.785Z,992.66
2019-05-07T16:21:51.263Z,992.52
2019-05-07T16:23:17.268Z,991.54
2019-05-07T16:24:35.223Z,991.34
2019-05-07T16:25:57.205Z,991.11
2019-05-07T16:27:19.212Z,991.20
2019-05-07T16:28:41.758Z,991.11
2019-05-07T16:30:03.160Z,991.10
2019-05-07T16:31:25.151Z,991.50
2019-05-07T16:32:47.163Z,991.69
2019-05-07T16:34:09.266Z,991.95
2019-05-07T16:35:32.281Z,991.89
2019-05-07T16:36:54.140Z,991.83
2019-05-07T16:38:18.081Z,991.85
2019-05-07T16:39:37.719Z,991.92
2019-05-07T16:40:59.670Z,992.04
2019-05-07T16:43:43.725Z,992.26
2019-05-07T16:45:05.138Z,992.09
2019-05-07T16:46:27.116Z,992.10
2019-05-07T16:47:49.206Z,992.04
2019-05-07T16:49:12.055Z,992.00
2019-05-07T16:50:34.357Z,992.00
2019-05-07T16:51:56.225Z,992.21
2019-05-07T16:53:27.449Z,992.71
2019-05-07T16:54:44.936Z,992.26
2019-05-07T16:56:02.943Z,990.98
2019-05-07T16:57:23.792Z,989.73
2019-05-07T16:58:45.899Z,988.98
2019-05-07T17:00:07.919Z,989.06
2019-05-07T17:01:32.221Z,988.68
2019-05-07T17:02:52.076Z,988.64
2019-05-07T17:04:14.081Z,989.11
2019-05-07T17:05:36.049Z,989.60
2019-05-07T17:06:58.231Z,990.26
2019-05-07T17:08:22.228Z,990.95
2019-05-07T17:09:42.496Z,991.37
2019-05-07T17:11:04.112Z,992.00
2019-05-07T17:12:26.084Z,992.61
2019-05-07T17:13:48.131Z,993.23
2019-05-07T17:15:12.239Z,993.54
2019-05-07T17:16:32.073Z,993.70
2019-05-07T17:17:54.056Z,993.81
2019-05-07T17:19:16.027Z,993.73
2019-05-07T17:20:37.983Z,993.73
2019-05-07T17:21:59.942Z,993.76
2019-05-07T17:23:22.549Z,994.01
2019-05-07T17:24:43.844Z,993.85
2019-05-07T17:26:05.792Z,993.31
2019-05-07T17:27:27.768Z,993.29
2019-05-07T17:28:51.970Z,993.18
2019-05-07T17:30:11.802Z,993.32
2019-05-07T17:31:33.595Z,993.36
2019-05-07T17:32:55.553Z,993.15
2019-05-07T17:34:17.518Z,993.48
2019-05-07T17:35:39.452Z,993.28
2019-05-07T17:37:02.028Z,992.77
2019-05-07T17:38:23.241Z,992.05
2019-05-07T17:39:44.810Z,991.78
2019-05-07T17:41:13.731Z,991.69
2019-05-07T17:42:28.708Z,991.90
2019-05-07T17:43:52.117Z,992.29
2019-05-07T17:45:12.582Z,992.63
2019-05-07T17:46:34.511Z,992.80
2019-05-07T17:47:56.452Z,992.93
2019-05-07T17:49:18.434Z,993.07
